Time;durP1;ratioP1;P1;durP2;ratioP2;P2;SDS_P1;SDS_P2;PMS_P1;PMS_P2;Temp;Humidity;BMP_temperature;BMP_pressure;BME280_temperature;BME280_humidity;BME280_pressure;Samples;Min_cycle;Max_cycle;Signal;HPM_P1;HPM_P2
2022/02/18 00:01:38;;;;;;;9.40;1.33;;;6.50;99.90;;;;;;5057028;28;20582;-90
2022/02/18 00:04:04;;;;;;;0.80;0.80;;;6.50;99.90;;;;;;5041574;28;20674;-90
2022/02/18 00:06:32;;;;;;;1.20;0.90;;;6.40;99.90;;;;;;5041562;28;20200;-89
2022/02/18 00:08:59;;;;;;;2.53;1.30;;;6.40;99.90;;;;;;5041026;28;20216;-90
2022/02/18 00:11:25;;;;;;;6.93;1.10;;;6.50;99.90;;;;;;5039031;28;20237;-91
2022/02/18 00:13:51;;;;;;;0.37;0.37;;;6.40;99.90;;;;;;5054402;28;20225;-89
2022/02/18 00:16:16;;;;;;;4.93;1.40;;;6.30;99.90;;;;;;5022397;28;20674;-89
2022/02/18 00:18:42;;;;;;;0.80;0.80;;;6.40;99.90;;;;;;5056745;28;20230;-89
2022/02/18 00:21:08;;;;;;;2.93;2.00;;;6.30;99.90;;;;;;5055064;28;20247;-90
2022/02/18 00:23:34;;;;;;;2.43;1.37;;;6.30;99.90;;;;;;5067187;28;20235;-90
2022/02/18 00:26:00;;;;;;;0.33;0.33;;;6.30;99.90;;;;;;5056742;28;20693;-92
2022/02/18 00:28:26;;;;;;;1.80;0.77;;;6.30;99.90;;;;;;5039099;28;20224;-89
2022/02/18 00:30:52;;;;;;;10.07;0.83;;;6.20;99.90;;;;;;5039246;28;20245;-90
2022/02/18 00:33:19;;;;;;;4.23;1.13;;;6.20;99.90;;;;;;5057047;28;20288;-90
2022/02/18 00:35:45;;;;;;;8.17;0.63;;;6.20;99.90;;;;;;5032451;28;20224;-90
2022/02/18 00:38:11;;;;;;;1.00;1.00;;;6.20;99.90;;;;;;5038172;28;20217;-90
2022/02/18 00:40:36;;;;;;;1.20;1.17;;;6.20;99.90;;;;;;5053783;28;20220;-90
2022/02/18 00:43:02;;;;;;;1.60;0.80;;;6.20;99.90;;;;;;5056265;28;23565;-90
2022/02/18 00:45:29;;;;;;;1.67;1.57;;;6.10;99.90;;;;;;5049171;28;20227;-90
2022/02/18 00:47:55;;;;;;;0.20;0.20;;;6.10;99.90;;;;;;5023022;28;20283;-91
2022/02/18 00:50:22;;;;;;;1.30;0.63;;;6.10;99.90;;;;;;5040018;28;20225;-89
2022/02/18 00:52:47;;;;;;;1.20;0.50;;;6.10;99.90;;;;;;5055842;28;20233;-91
2022/02/18 00:55:14;;;;;;;0.20;0.20;;;6.00;99.90;;;;;;5031969;28;20643;-92
2022/02/18 00:57:40;;;;;;;2.63;1.47;;;6.10;99.90;;;;;;5054956;28;20654;-89
2022/02/18 01:00:08;;;;;;;0.57;0.57;;;6.00;99.90;;;;;;5056789;28;20228;-91
2022/02/18 01:02:35;;;;;;;0.33;0.33;;;5.90;99.90;;;;;;5065932;28;20217;-93
2022/02/18 01:05:01;;;;;;;1.33;1.23;;;6.00;99.90;;;;;;5054933;28;20228;-92
2022/02/18 01:07:26;;;;;;;2.90;0.73;;;6.00;99.90;;;;;;5065561;28;20220;-93
2022/02/18 01:09:53;;;;;;;0.20;0.20;;;6.00;99.90;;;;;;5056168;28;20221;-91
2022/02/18 01:12:20;;;;;;;1.60;0.90;;;6.00;99.90;;;;;;5040178;28;20251;-91
2022/02/18 01:14:46;;;;;;;0.80;0.63;;;5.90;99.90;;;;;;5054051;28;20229;-92
2022/02/18 01:17:12;;;;;;;6.03;0.70;;;5.90;99.90;;;;;;5066453;28;21151;-88
2022/02/18 01:19:38;;;;;;;0.97;0.80;;;5.90;99.90;;;;;;5037017;28;20221;-92
2022/02/18 01:22:04;;;;;;;1.03;0.93;;;5.90;99.90;;;;;;5061568;28;20221;-91
2022/02/18 01:24:30;;;;;;;0.50;0.50;;;5.90;99.90;;;;;;5062680;28;20189;-90
2022/02/18 01:26:56;;;;;;;2.20;0.60;;;5.80;99.90;;;;;;5062022;28;20232;-90
2022/02/18 01:29:22;;;;;;;0.50;0.50;;;5.80;99.90;;;;;;5033178;28;20221;-90
2022/02/18 01:31:48;;;;;;;1.47;1.37;;;5.80;99.90;;;;;;5019097;28;20220;-90
2022/02/18 01:34:14;;;;;;;1.07;1.07;;;5.80;99.90;;;;;;5053588;28;20217;-91
2022/02/18 01:36:40;;;;;;;0.80;0.80;;;5.70;99.90;;;;;;5052461;28;20315;-87
2022/02/18 01:39:06;;;;;;;0.50;0.50;;;5.70;99.90;;;;;;5054912;28;20300;-91
2022/02/18 01:41:32;;;;;;;5.27;1.20;;;5.60;99.90;;;;;;5054004;28;20296;-92
2022/02/18 01:44:09;;;;;;;0.40;0.40;;;5.60;99.90;;;;;;5053578;28;20274;-92
2022/02/18 01:46:35;;;;;;;2.30;2.10;;;5.40;99.90;;;;;;5055459;28;20224;-91
2022/02/18 01:49:01;;;;;;;1.70;1.00;;;5.40;99.90;;;;;;5037293;28;20258;-91
2022/02/18 01:51:27;;;;;;;2.93;0.87;;;5.40;99.90;;;;;;5039455;28;20255;-92
2022/02/18 01:53:54;;;;;;;5.57;2.07;;;5.40;99.90;;;;;;5051950;28;20219;-92
2022/02/18 01:56:22;;;;;;;4.60;2.83;;;5.40;99.90;;;;;;5055076;28;20220;-89
2022/02/18 01:58:47;;;;;;;0.50;0.50;;;5.30;99.90;;;;;;5047227;28;20296;-91
2022/02/18 02:01:14;;;;;;;0.77;0.77;;;5.20;99.90;;;;;;5055639;28;20308;-91
2022/02/18 02:03:40;;;;;;;3.53;1.27;;;5.20;99.90;;;;;;5039882;28;20288;-92
2022/02/18 02:06:07;;;;;;;1.53;1.03;;;5.20;99.90;;;;;;5032505;28;20680;-88
2022/02/18 02:08:35;;;;;;;0.57;0.57;;;5.20;99.90;;;;;;5053789;28;20221;-90
2022/02/18 02:11:01;;;;;;;2.83;0.80;;;5.10;99.90;;;;;;5064791;28;20229;-93
2022/02/18 02:13:35;;;;;;;0.73;0.73;;;5.10;99.90;;;;;;5037377;28;20232;-91
2022/02/18 02:16:02;;;;;;;0.90;0.90;;;5.10;99.90;;;;;;5053435;28;20188;-93
2022/02/18 02:18:28;;;;;;;0.83;0.83;;;5.10;99.90;;;;;;5055602;28;20251;-91
2022/02/18 02:20:54;;;;;;;1.10;0.40;;;5.20;99.90;;;;;;5037378;28;20209;-91
2022/02/18 02:23:20;;;;;;;0.77;0.77;;;5.30;99.90;;;;;;5057386;28;20202;-89
2022/02/18 02:25:46;;;;;;;0.67;0.67;;;5.30;99.90;;;;;;5057866;28;20275;-91
2022/02/18 02:28:12;;;;;;;0.30;0.30;;;5.30;99.90;;;;;;5042221;28;20319;-91
2022/02/18 02:30:38;;;;;;;2.07;1.50;;;5.30;99.90;;;;;;5058001;28;20336;-91
2022/02/18 02:33:04;;;;;;;0.60;0.60;;;5.40;99.90;;;;;;5052222;28;20275;-91
2022/02/18 02:35:30;;;;;;;0.60;0.60;;;5.30;99.90;;;;;;5068328;28;20217;-91
2022/02/18 02:37:55;;;;;;;1.53;0.70;;;5.40;99.90;;;;;;5041284;28;20232;-91
2022/02/18 02:40:21;;;;;;;0.20;0.20;;;5.40;99.90;;;;;;5068737;28;20236;-92
2022/02/18 02:42:47;;;;;;;0.73;0.40;;;5.40;99.90;;;;;;5023324;28;20208;-91
2022/02/18 02:45:14;;;;;;;0.63;0.40;;;5.50;99.90;;;;;;5059306;28;20196;-90
2022/02/18 02:47:45;;;;;;;0.93;0.70;;;5.40;99.90;;;;;;5059248;28;20213;-90
2022/02/18 02:50:12;;;;;;;0.50;0.43;;;5.60;99.90;;;;;;5057878;28;20217;-91
2022/02/18 02:52:38;;;;;;;1.80;1.70;;;5.60;99.90;;;;;;5055965;28;20217;-90
2022/02/18 02:55:10;;;;;;;1.07;0.40;;;5.60;99.90;;;;;;5066947;28;20225;-90
2022/02/18 02:57:37;;;;;;;0.63;0.60;;;5.70;99.90;;;;;;5057129;28;20211;-91
2022/02/18 03:00:04;;;;;;;10.17;0.83;;;5.70;99.90;;;;;;5040599;28;20224;-91
2022/02/18 03:02:30;;;;;;;7.63;2.20;;;5.80;99.90;;;;;;5068743;28;20217;-90
2022/02/18 03:04:55;;;;;;;1.57;1.17;;;5.80;99.90;;;;;;5024456;28;20244;-91
2022/02/18 03:07:21;;;;;;;26.43;1.03;;;5.70;99.90;;;;;;5025906;28;20783;-91
2022/02/18 03:09:47;;;;;;;0.70;0.70;;;5.80;99.90;;;;;;5057388;28;20244;-92
2022/02/18 03:12:13;;;;;;;1.90;1.40;;;5.80;99.90;;;;;;5058874;28;20619;-89
2022/02/18 03:14:38;;;;;;;2.00;0.80;;;5.80;99.90;;;;;;5067949;28;20209;-91
2022/02/18 03:17:04;;;;;;;0.50;0.50;;;5.90;99.90;;;;;;5039435;28;20232;-92
2022/02/18 03:19:30;;;;;;;0.30;0.30;;;5.80;99.90;;;;;;5067580;28;20217;-92
2022/02/18 03:21:58;;;;;;;10.20;0.70;;;5.90;99.90;;;;;;5057091;28;20597;-91
2022/02/18 03:24:24;;;;;;;0.60;0.50;;;5.80;99.90;;;;;;5058791;28;20197;-92
2022/02/18 03:26:50;;;;;;;1.17;1.10;;;5.90;99.90;;;;;;5068668;28;20271;-92
2022/02/18 03:29:17;;;;;;;2.03;0.23;;;5.80;99.90;;;;;;5055129;28;20773;-92
2022/02/18 03:31:43;;;;;;;0.53;0.53;;;5.80;99.90;;;;;;5033907;28;20349;-90
2022/02/18 03:34:08;;;;;;;0.67;0.67;;;5.80;99.90;;;;;;5030106;28;20232;-91
2022/02/18 03:36:35;;;;;;;0.67;0.50;;;5.80;99.90;;;;;;5030673;28;20194;-92
2022/02/18 03:39:00;;;;;;;0.20;0.20;;;5.70;99.90;;;;;;5046072;28;20222;-88
2022/02/18 03:41:30;;;;;;;3.03;1.03;;;5.70;99.90;;;;;;5006900;28;20217;-90
2022/02/18 03:43:57;;;;;;;1.40;0.60;;;5.70;99.90;;;;;;5046624;28;20206;-91
2022/02/18 03:46:23;;;;;;;0.40;0.30;;;5.70;99.90;;;;;;5046203;28;20214;-89
2022/02/18 03:48:49;;;;;;;0.33;0.33;;;5.70;99.90;;;;;;5029702;28;20191;-90
2022/02/18 03:51:14;;;;;;;2.03;0.60;;;5.70;99.90;;;;;;5014620;28;20217;-89
2022/02/18 03:53:40;;;;;;;3.20;0.97;;;5.60;99.90;;;;;;5047438;28;20224;-89
2022/02/18 03:56:06;;;;;;;5.90;0.87;;;5.70;99.90;;;;;;5013315;28;20237;-90
2022/02/18 03:58:32;;;;;;;1.13;0.27;;;5.70;99.90;;;;;;5030001;28;20222;-90
2022/02/18 04:00:58;;;;;;;2.70;1.43;;;5.70;99.90;;;;;;5045522;28;20285;-89
2022/02/18 04:03:24;;;;;;;1.40;1.30;;;5.70;99.90;;;;;;5014389;28;20613;-88
2022/02/18 04:05:50;;;;;;;1.93;0.83;;;5.60;99.90;;;;;;5029236;28;20218;-89
2022/02/18 04:08:15;;;;;;;4.53;0.93;;;5.70;99.90;;;;;;5013555;28;20707;-90
2022/02/18 04:10:41;;;;;;;7.43;0.80;;;5.70;99.90;;;;;;5046664;28;20274;-89
2022/02/18 04:13:07;;;;;;;0.77;0.70;;;5.70;99.90;;;;;;5047487;28;20249;-89
2022/02/18 04:15:33;;;;;;;0.87;0.30;;;5.70;99.90;;;;;;5030174;28;20194;-91
2022/02/18 04:17:59;;;;;;;8.70;1.27;;;5.70;99.90;;;;;;5029540;28;21034;-90
2022/02/18 04:20:26;;;;;;;6.53;0.87;;;5.70;99.90;;;;;;5045671;28;20230;-90
2022/02/18 04:22:52;;;;;;;6.23;0.73;;;5.80;99.90;;;;;;5045231;28;20299;-89
2022/02/18 04:25:18;;;;;;;0.30;0.30;;;5.90;99.90;;;;;;5045262;28;21015;-89
2022/02/18 04:28:01;;;;;;;0.80;0.40;;;5.90;99.90;;;;;;5047126;28;20193;-89
2022/02/18 04:30:29;;;;;;;0.33;0.33;;;5.90;99.90;;;;;;5045870;28;20291;-89
2022/02/18 04:32:54;;;;;;;1.40;1.20;;;5.90;99.90;;;;;;5065912;28;20240;-90
2022/02/18 04:35:21;;;;;;;2.63;1.33;;;5.90;99.90;;;;;;5038809;28;20233;-90
2022/02/18 04:37:47;;;;;;;3.67;0.97;;;6.00;99.90;;;;;;5055788;28;20548;-90
2022/02/18 04:40:14;;;;;;;1.40;0.40;;;5.90;99.90;;;;;;5039750;28;20705;-89
2022/02/18 04:42:41;;;;;;;3.83;1.50;;;6.00;99.90;;;;;;5063554;28;20199;-91
2022/02/18 04:45:07;;;;;;;6.20;0.50;;;6.00;99.90;;;;;;5050740;28;20221;-88
2022/02/18 04:47:33;;;;;;;0.30;0.30;;;6.10;99.90;;;;;;5035393;28;20221;-89
2022/02/18 04:49:59;;;;;;;0.40;0.40;;;6.10;99.90;;;;;;5044074;28;20720;-91
2022/02/18 04:52:24;;;;;;;0.60;0.57;;;6.20;99.90;;;;;;5034066;28;20221;-90
2022/02/18 04:54:53;;;;;;;4.37;1.40;;;6.30;99.90;;;;;;5028242;28;20188;-90
2022/02/18 04:57:19;;;;;;;1.23;1.23;;;6.30;99.90;;;;;;5033905;28;20199;-91
2022/02/18 04:59:44;;;;;;;0.80;0.57;;;6.40;99.90;;;;;;5051916;28;20802;-87
2022/02/18 05:02:10;;;;;;;1.10;1.03;;;6.50;99.90;;;;;;5035474;28;20213;-90
2022/02/18 05:04:36;;;;;;;0.40;0.30;;;6.60;99.90;;;;;;5058156;28;20217;-93
2022/02/18 05:07:02;;;;;;;0.83;0.83;;;6.60;99.90;;;;;;5040749;28;20281;-89
2022/02/18 05:09:28;;;;;;;1.53;1.27;;;6.60;99.90;;;;;;5073224;28;20264;-90
2022/02/18 05:11:53;;;;;;;2.23;2.03;;;6.70;99.90;;;;;;5057684;28;20536;-90
2022/02/18 05:14:19;;;;;;;1.57;1.50;;;6.70;99.90;;;;;;5045471;28;20220;-89
2022/02/18 05:16:45;;;;;;;0.70;0.70;;;6.70;99.90;;;;;;5058150;28;20248;-89
2022/02/18 05:19:11;;;;;;;0.83;0.83;;;6.70;99.90;;;;;;5023589;28;20247;-90
2022/02/18 05:21:38;;;;;;;8.50;0.90;;;6.70;99.90;;;;;;5056237;28;20204;-91
2022/02/18 05:24:07;;;;;;;6.63;0.57;;;6.80;99.90;;;;;;5065253;28;20258;-90
2022/02/18 05:26:34;;;;;;;7.10;1.93;;;6.80;99.90;;;;;;5065781;28;20320;-91
2022/02/18 05:29:00;;;;;;;1.20;1.10;;;6.80;99.90;;;;;;5066006;28;20236;-91
2022/02/18 05:31:26;;;;;;;0.70;0.70;;;6.90;99.90;;;;;;5055822;28;20248;-91
2022/02/18 05:33:52;;;;;;;3.80;0.57;;;6.80;99.90;;;;;;5056416;28;20204;-90
2022/02/18 05:36:18;;;;;;;9.17;1.40;;;6.90;99.90;;;;;;5039602;28;20193;-93
2022/02/18 05:38:46;;;;;;;0.57;0.57;;;6.90;99.90;;;;;;5038342;28;20673;-92
2022/02/18 05:41:16;;;;;;;2.27;1.17;;;6.90;99.90;;;;;;5038096;28;20221;-92
2022/02/18 05:43:43;;;;;;;0.80;0.80;;;6.80;99.90;;;;;;5039288;28;20221;-92
2022/02/18 05:46:09;;;;;;;0.50;0.50;;;6.90;99.90;;;;;;5054912;28;20212;-94
2022/02/18 05:48:35;;;;;;;1.20;0.40;;;6.80;99.90;;;;;;5038851;28;20250;-92
2022/02/18 05:51:03;;;;;;;2.73;1.27;;;6.80;99.90;;;;;;5053776;28;20216;-93
2022/02/18 05:53:29;;;;;;;1.40;1.30;;;6.90;99.90;;;;;;5035633;28;20260;-90
2022/02/18 05:55:55;;;;;;;5.40;0.77;;;6.80;99.90;;;;;;5061104;28;20299;-91
2022/02/18 05:58:22;;;;;;;4.23;1.17;;;6.80;99.90;;;;;;5053525;28;20221;-89
2022/02/18 06:00:48;;;;;;;3.03;0.97;;;6.70;99.90;;;;;;5066378;28;20205;-89
2022/02/18 06:03:14;;;;;;;2.23;1.27;;;6.60;99.90;;;;;;5065761;28;20625;-90
2022/02/18 06:05:40;;;;;;;1.33;1.20;;;6.50;99.90;;;;;;5053729;28;20320;-89
2022/02/18 06:08:07;;;;;;;0.40;0.40;;;6.40;99.90;;;;;;5022233;28;20266;-90
2022/02/18 06:10:35;;;;;;;3.70;0.67;;;6.40;99.90;;;;;;5055370;28;20233;-90
2022/02/18 06:13:01;;;;;;;0.30;0.30;;;6.30;99.90;;;;;;5066539;28;20280;-90
2022/02/18 06:15:27;;;;;;;8.33;0.53;;;6.20;99.90;;;;;;5059716;28;20220;-90
2022/02/18 06:17:53;;;;;;;6.00;1.90;;;6.10;99.90;;;;;;5042382;28;20228;-91
2022/02/18 06:20:19;;;;;;;4.63;0.90;;;6.10;99.90;;;;;;5068598;28;20296;-90
2022/02/18 06:22:45;;;;;;;1.90;1.57;;;6.20;99.90;;;;;;5042394;28;20231;-91
2022/02/18 06:25:12;;;;;;;0.87;0.87;;;6.20;99.90;;;;;;5058009;28;20205;-92
2022/02/18 06:27:38;;;;;;;7.23;1.33;;;6.20;99.90;;;;;;5060181;28;20177;-90
2022/02/18 06:30:05;;;;;;;3.80;1.30;;;6.20;99.90;;;;;;5058139;28;20229;-90
2022/02/18 06:32:30;;;;;;;0.93;0.93;;;6.10;99.90;;;;;;5049506;28;20238;-90
2022/02/18 06:34:56;;;;;;;1.07;0.83;;;6.10;99.90;;;;;;5047387;28;20612;-90
2022/02/18 06:37:22;;;;;;;1.07;1.07;;;6.10;99.90;;;;;;5048908;28;20245;-91
2022/02/18 06:39:48;;;;;;;0.60;0.60;;;6.10;99.90;;;;;;5006922;28;20209;-94
2022/02/18 06:42:15;;;;;;;2.23;0.83;;;6.20;99.90;;;;;;5035797;28;20217;-95
2022/02/18 06:44:40;;;;;;;0.30;0.30;;;6.20;99.90;;;;;;5047345;28;20212;-90
2022/02/18 06:47:06;;;;;;;1.17;1.13;;;6.20;99.90;;;;;;5047250;28;20573;-91
2022/02/18 06:49:32;;;;;;;0.87;0.87;;;6.20;99.90;;;;;;5047104;28;20213;-91
2022/02/18 06:51:58;;;;;;;5.33;0.50;;;6.30;99.90;;;;;;5046093;28;20225;-91
2022/02/18 06:54:29;;;;;;;0.60;0.60;;;6.20;99.90;;;;;;5031772;28;20186;-91
2022/02/18 06:57:00;;;;;;;0.40;0.40;;;6.30;99.90;;;;;;5046605;28;20762;-91
2022/02/18 06:59:26;;;;;;;1.30;0.90;;;6.30;99.90;;;;;;5048075;28;20242;-94
2022/02/18 07:01:54;;;;;;;0.70;0.70;;;6.30;99.90;;;;;;5047483;28;20214;-95
2022/02/18 07:04:22;;;;;;;1.43;1.40;;;6.30;99.90;;;;;;5048846;28;20221;-93
2022/02/18 07:06:47;;;;;;;1.63;1.53;;;6.30;99.90;;;;;;5051619;28;20217;-93
2022/02/18 07:09:14;;;;;;;3.90;1.17;;;6.30;99.90;;;;;;5033053;28;20209;-93
2022/02/18 07:11:40;;;;;;;0.63;0.63;;;6.40;99.90;;;;;;5048972;28;20244;-94
2022/02/18 07:14:11;;;;;;;0.60;0.60;;;6.40;99.90;;;;;;5049009;28;20217;-91
2022/02/18 07:16:41;;;;;;;1.37;0.87;;;6.40;99.90;;;;;;5045027;28;20276;-89
2022/02/18 07:19:11;;;;;;;2.13;1.53;;;6.50;99.90;;;;;;5011412;28;20588;-88
2022/02/18 07:21:38;;;;;;;0.60;0.60;;;6.50;99.90;;;;;;5045529;28;20311;-88
2022/02/18 07:24:11;;;;;;;6.43;3.63;;;6.50;99.90;;;;;;5012531;28;20221;-86
2022/02/18 07:26:37;;;;;;;0.50;0.50;;;6.60;99.90;;;;;;5044707;28;20275;-86
2022/02/18 07:29:04;;;;;;;2.87;0.97;;;6.60;99.90;;;;;;5045479;28;20297;-87
2022/02/18 07:31:30;;;;;;;2.33;1.43;;;6.60;99.90;;;;;;5048851;28;20698;-87
2022/02/18 07:33:56;;;;;;;1.63;1.07;;;6.50;99.90;;;;;;5055506;28;20189;-86
2022/02/18 07:36:22;;;;;;;1.13;0.93;;;6.60;99.90;;;;;;5057795;28;20205;-86
2022/02/18 07:38:48;;;;;;;0.60;0.60;;;6.70;99.90;;;;;;5053846;28;20221;-85
2022/02/18 07:41:14;;;;;;;1.07;0.83;;;6.70;99.90;;;;;;5037879;28;20273;-88
2022/02/18 07:43:40;;;;;;;1.13;1.10;;;6.60;99.90;;;;;;5055432;28;20214;-86
2022/02/18 07:46:06;;;;;;;1.57;1.47;;;6.70;99.90;;;;;;5056347;28;20217;-87
2022/02/18 07:48:32;;;;;;;4.90;2.03;;;6.70;99.90;;;;;;5039849;28;20258;-86
2022/02/18 07:50:57;;;;;;;4.27;1.50;;;6.70;99.90;;;;;;5056373;28;20694;-89
2022/02/18 07:53:23;;;;;;;1.73;1.63;;;6.70;99.90;;;;;;5023539;28;20221;-86
2022/02/18 07:55:49;;;;;;;3.43;1.77;;;6.80;99.90;;;;;;5055344;28;20224;-86
2022/02/18 07:58:16;;;;;;;1.53;1.43;;;6.70;99.90;;;;;;5038856;28;20621;-87
2022/02/18 08:00:42;;;;;;;2.97;1.30;;;6.80;99.90;;;;;;5055472;28;20280;-88
2022/02/18 08:03:07;;;;;;;4.07;1.40;;;6.80;99.90;;;;;;5055223;28;20304;-88
2022/02/18 08:05:34;;;;;;;5.17;1.67;;;6.90;99.90;;;;;;5021151;28;20210;-86
2022/02/18 08:08:01;;;;;;;3.40;1.53;;;6.90;99.90;;;;;;5053921;28;20304;-90
2022/02/18 08:10:29;;;;;;;1.60;0.87;;;6.90;99.90;;;;;;5038566;28;20233;-86
2022/02/18 08:12:56;;;;;;;1.70;1.10;;;7.00;99.90;;;;;;5056595;28;21168;-86
2022/02/18 08:15:22;;;;;;;0.70;0.70;;;7.10;99.90;;;;;;5056143;28;20608;-85
2022/02/18 08:17:48;;;;;;;1.20;0.87;;;7.10;99.90;;;;;;5054172;28;20217;-85
2022/02/18 08:20:14;;;;;;;0.63;0.63;;;7.10;99.90;;;;;;5037016;28;20270;-86
2022/02/18 08:22:40;;;;;;;4.10;1.53;;;7.00;99.90;;;;;;5055658;28;20264;-83
2022/02/18 08:25:07;;;;;;;1.03;0.97;;;7.20;99.90;;;;;;5055439;28;20221;-83
2022/02/18 08:27:33;;;;;;;6.07;1.63;;;7.10;99.90;;;;;;5056995;28;20197;-86
2022/02/18 08:29:59;;;;;;;2.93;2.10;;;7.10;99.90;;;;;;5021577;28;20230;-85
2022/02/18 08:32:25;;;;;;;0.80;0.80;;;7.10;99.90;;;;;;5047735;28;20238;-86
2022/02/18 08:34:50;;;;;;;0.50;0.50;;;7.20;99.90;;;;;;5045053;28;20275;-85
2022/02/18 08:37:16;;;;;;;5.00;1.00;;;7.20;99.90;;;;;;5044756;28;20225;-85
2022/02/18 08:39:42;;;;;;;1.13;1.13;;;7.30;99.90;;;;;;5012465;28;20197;-86
2022/02/18 08:42:08;;;;;;;0.97;0.97;;;7.30;99.90;;;;;;5044543;28;20559;-85
2022/02/18 08:44:34;;;;;;;1.53;1.43;;;7.30;99.90;;;;;;5028027;28;20229;-86
2022/02/18 08:47:00;;;;;;;2.73;0.90;;;7.50;99.90;;;;;;5044595;28;20272;-84
2022/02/18 08:49:26;;;;;;;1.10;1.00;;;7.40;99.90;;;;;;5043850;28;20637;-86
2022/02/18 08:51:52;;;;;;;1.90;0.83;;;7.50;99.90;;;;;;5011679;28;20204;-85
2022/02/18 08:54:18;;;;;;;1.60;0.57;;;7.50;99.90;;;;;;5061605;28;20190;-86
2022/02/18 08:56:44;;;;;;;0.50;0.50;;;7.50;99.90;;;;;;5027457;28;20299;-85
2022/02/18 08:59:10;;;;;;;2.20;0.70;;;7.60;99.90;;;;;;5044434;28;20244;-85
2022/02/18 09:01:36;;;;;;;1.70;1.17;;;7.60;99.90;;;;;;5045802;28;20236;-87
2022/02/18 09:04:03;;;;;;;1.70;1.60;;;7.70;99.90;;;;;;5044976;28;20221;-86
2022/02/18 09:06:29;;;;;;;0.40;0.40;;;7.80;99.90;;;;;;5045572;28;20197;-85
2022/02/18 09:08:54;;;;;;;0.60;0.60;;;7.80;99.90;;;;;;5044200;28;20213;-89
2022/02/18 09:11:20;;;;;;;0.53;0.53;;;7.80;99.90;;;;;;5043650;28;20274;-85
2022/02/18 09:13:47;;;;;;;2.13;0.67;;;7.80;99.90;;;;;;5024691;28;20247;-87
2022/02/18 09:16:14;;;;;;;0.60;0.60;;;7.80;99.90;;;;;;5040862;28;21119;-87
2022/02/18 09:18:40;;;;;;;1.10;1.10;;;7.90;99.90;;;;;;5042755;28;20738;-85
2022/02/18 09:21:07;;;;;;;6.13;3.40;;;8.00;99.90;;;;;;5043699;28;20222;-83
2022/02/18 09:23:33;;;;;;;1.53;1.43;;;8.00;99.90;;;;;;5045177;28;20220;-84
2022/02/18 09:25:59;;;;;;;0.50;0.50;;;8.00;99.90;;;;;;5027179;28;20229;-84
2022/02/18 09:28:27;;;;;;;1.13;0.93;;;8.20;99.90;;;;;;5044147;28;20533;-85
2022/02/18 09:30:55;;;;;;;1.30;1.20;;;8.10;99.90;;;;;;5044798;28;20210;-86
2022/02/18 09:33:21;;;;;;;1.47;1.37;;;8.30;99.90;;;;;;5043570;28;20199;-85
2022/02/18 09:35:47;;;;;;;2.53;2.07;;;8.40;99.90;;;;;;5042114;28;20255;-87
2022/02/18 09:38:14;;;;;;;1.13;1.13;;;8.40;99.90;;;;;;5039512;28;20233;-84
2022/02/18 09:40:41;;;;;;;6.87;1.37;;;8.50;99.90;;;;;;5062497;28;20597;-83
2022/02/18 09:43:07;;;;;;;3.30;1.67;;;8.60;99.90;;;;;;5043946;28;20255;-92
2022/02/18 09:45:33;;;;;;;6.73;1.17;;;8.70;99.90;;;;;;5046120;28;20221;-92
2022/02/18 09:47:59;;;;;;;1.67;1.53;;;8.70;99.90;;;;;;5065768;28;20209;-93
2022/02/18 09:50:26;;;;;;;7.27;2.30;;;8.80;99.90;;;;;;5032786;28;20229;-93
2022/02/18 09:52:52;;;;;;;2.43;1.97;;;8.80;99.90;;;;;;5065872;28;20231;-93
2022/02/18 09:55:18;;;;;;;2.00;1.90;;;8.90;99.90;;;;;;5071790;28;20212;-90
2022/02/18 09:57:56;;;;;;;3.90;2.70;;;9.00;99.90;;;;;;5059943;28;20222;-94
2022/02/18 10:00:23;;;;;;;2.40;2.20;;;9.10;99.90;;;;;;5069005;28;20189;-92
2022/02/18 10:02:54;;;;;;;3.90;2.60;;;9.20;99.90;;;;;;5076918;28;20225;-91
2022/02/18 10:05:20;;;;;;;1.57;1.47;;;9.30;99.90;;;;;;5076171;28;20692;-94
2022/02/18 10:08:15;;;;;;;2.43;2.00;;;9.40;99.90;;;;;;5062202;28;20217;-95
2022/02/18 10:10:58;;;;;;;2.83;2.13;;;9.50;99.90;;;;;;5074942;28;20241;-93
2022/02/18 10:13:30;;;;;;;2.37;2.10;;;9.60;99.90;;;;;;5082089;28;20870;-93
2022/02/18 10:15:59;;;;;;;2.30;2.00;;;9.60;99.90;;;;;;5077839;28;20247;-93
2022/02/18 10:18:48;;;;;;;3.23;2.70;;;9.80;99.90;;;;;;5081326;28;20190;-94
2022/02/18 10:21:27;;;;;;;3.20;2.23;;;9.70;99.90;;;;;;5061693;28;20221;-93
2022/02/18 10:27:15;;;;;;;1.63;1.53;;;9.90;99.90;;;;;;5070678;28;20240;-93
2022/02/18 10:29:58;;;;;;;3.83;2.37;;;10.00;99.90;;;;;;5046765;28;20686;-93
2022/02/18 10:32:24;;;;;;;5.53;3.00;;;10.10;99.90;;;;;;5079829;28;20241;-93
2022/02/18 10:35:04;;;;;;;6.23;4.13;;;10.00;99.90;;;;;;5070258;28;20286;-94
2022/02/18 10:37:35;;;;;;;2.30;1.67;;;10.10;99.90;;;;;;5061497;28;20232;-93
2022/02/18 10:40:16;;;;;;;3.57;3.27;;;10.10;99.90;;;;;;5059692;28;20214;-93
2022/02/18 10:42:44;;;;;;;6.87;2.37;;;10.10;99.90;;;;;;5076372;28;20197;-94
2022/02/18 10:45:22;;;;;;;7.67;3.90;;;10.10;99.90;;;;;;5064403;28;20209;-93
2022/02/18 10:48:05;;;;;;;6.27;3.93;;;10.20;99.90;;;;;;5067215;28;20220;-92
2022/02/18 10:50:31;;;;;;;7.27;4.80;;;10.20;99.90;;;;;;5059913;28;20228;-92
2022/02/18 10:56:06;;;;;;;2.20;1.70;;;10.20;99.90;;;;;;5059265;28;20306;-89
2022/02/18 10:58:37;;;;;;;1.60;1.50;;;10.30;99.90;;;;;;5057316;28;20463;-88
2022/02/18 11:01:21;;;;;;;1.63;1.47;;;10.30;99.90;;;;;;5055844;28;20232;-91
2022/02/18 11:03:51;;;;;;;2.77;1.83;;;10.30;99.90;;;;;;5056340;28;20554;-89
2022/02/18 11:06:27;;;;;;;3.03;2.67;;;10.40;99.90;;;;;;5057537;28;20190;-89
2022/02/18 11:09:04;;;;;;;4.73;3.63;;;10.50;99.90;;;;;;5067960;28;20251;-91
2022/02/18 11:11:32;;;;;;;5.27;3.17;;;10.50;99.90;;;;;;5039366;28;20244;-93
2022/02/18 11:14:03;;;;;;;7.77;5.17;;;10.50;99.90;;;;;;5074721;28;20231;-91
2022/02/18 11:16:31;;;;;;;3.03;2.47;;;10.50;99.90;;;;;;5057589;28;20217;-91
2022/02/18 11:18:58;;;;;;;6.27;3.10;;;10.50;99.90;;;;;;5055408;28;20207;-90
2022/02/18 11:21:27;;;;;;;3.27;2.50;;;10.60;99.90;;;;;;5044960;28;20205;-90
2022/02/18 11:23:57;;;;;;;5.73;4.00;;;10.60;99.90;;;;;;5040502;28;20217;-90
2022/02/18 11:26:25;;;;;;;4.47;3.17;;;10.70;99.90;;;;;;5067916;28;20221;-85
2022/02/18 11:28:52;;;;;;;4.30;3.53;;;10.60;99.90;;;;;;5056656;28;20276;-91
2022/02/18 11:31:24;;;;;;;2.37;2.17;;;10.70;99.90;;;;;;5023509;28;20237;-88
2022/02/18 11:34:27;;;;;;;5.00;4.43;;;10.80;99.90;;;;;;5054643;28;20189;-89
2022/02/18 11:37:35;;;;;;;4.53;2.17;;;10.90;99.90;;;;;;5068616;28;20216;-86
2022/02/18 11:40:26;;;;;;;1.20;1.13;;;10.80;99.90;;;;;;5068089;28;20192;-87
2022/02/18 11:43:26;;;;;;;3.00;1.97;;;11.00;99.90;;;;;;5068229;28;20189;-89
2022/02/18 11:46:03;;;;;;;4.07;1.93;;;11.10;99.90;;;;;;5058217;28;20277;-91
2022/02/18 11:48:46;;;;;;;0.83;0.80;;;11.10;99.90;;;;;;5056235;28;20177;-88
2022/02/18 11:51:14;;;;;;;1.63;1.53;;;11.20;99.90;;;;;;5055608;28;20232;-88
2022/02/18 11:53:51;;;;;;;1.87;1.30;;;11.30;99.90;;;;;;5067858;28;20299;-85
2022/02/18 11:56:40;;;;;;;1.00;1.00;;;11.30;99.90;;;;;;5057120;28;20295;-88
2022/02/18 11:59:06;;;;;;;0.37;0.37;;;11.30;99.90;;;;;;5058020;28;20224;-87
2022/02/18 12:02:00;;;;;;;0.60;0.60;;;11.30;99.90;;;;;;5055705;28;20221;-87
2022/02/18 12:04:27;;;;;;;1.00;1.00;;;11.30;99.90;;;;;;5057707;28;20255;-87
2022/02/18 12:07:15;;;;;;;1.13;1.00;;;11.40;99.90;;;;;;5056321;28;20220;-89
2022/02/18 12:09:49;;;;;;;1.23;0.83;;;11.40;99.90;;;;;;5067247;28;20199;-88
2022/02/18 12:12:33;;;;;;;2.03;1.40;;;11.50;99.90;;;;;;5058174;28;20224;-88
2022/02/18 12:15:15;;;;;;;5.63;1.40;;;11.50;99.90;;;;;;5057111;28;20278;-89
2022/02/18 12:17:49;;;;;;;10.50;5.33;;;11.50;99.90;;;;;;5066593;28;20275;-87
2022/02/18 12:20:25;;;;;;;5.43;1.70;;;11.50;99.90;;;;;;5066842;28;20379;-86
2022/02/18 12:22:51;;;;;;;1.40;1.10;;;11.60;99.90;;;;;;5066663;28;20221;-87
2022/02/18 12:25:19;;;;;;;0.83;0.50;;;11.50;99.90;;;;;;5056317;28;20233;-88
2022/02/18 12:27:46;;;;;;;1.40;0.43;;;11.50;99.90;;;;;;5054340;28;20215;-88
2022/02/18 12:30:21;;;;;;;0.53;0.53;;;11.40;99.90;;;;;;5056514;28;20231;-89
2022/02/18 12:32:52;;;;;;;0.60;0.60;;;11.40;99.90;;;;;;5064940;28;20267;-87
2022/02/18 12:35:24;;;;;;;0.57;0.57;;;11.40;99.90;;;;;;5054454;28;20225;-87
2022/02/18 12:37:50;;;;;;;0.60;0.60;;;11.30;99.90;;;;;;5051342;28;20694;-86
2022/02/18 12:40:17;;;;;;;9.03;1.40;;;11.30;99.90;;;;;;5056626;28;20233;-85
2022/02/18 12:42:44;;;;;;;1.13;1.03;;;11.30;99.90;;;;;;5054415;28;20603;-87
2022/02/18 12:45:12;;;;;;;2.83;1.17;;;11.30;99.90;;;;;;5057264;28;20182;-88
2022/02/18 12:47:39;;;;;;;1.07;0.73;;;11.20;99.90;;;;;;5037283;28;20312;-88
2022/02/18 12:50:11;;;;;;;1.30;1.10;;;11.20;99.90;;;;;;5066500;28;20235;-90
2022/02/18 12:52:39;;;;;;;9.10;1.50;;;11.20;99.90;;;;;;5065645;28;20231;-89
2022/02/18 12:55:08;;;;;;;4.07;1.10;;;11.20;99.90;;;;;;5055213;28;20221;-89
2022/02/18 12:57:39;;;;;;;2.67;0.77;;;11.10;99.90;;;;;;5072796;28;20526;-86
2022/02/18 13:00:08;;;;;;;2.93;0.97;;;11.00;99.90;;;;;;5037398;28;20217;-87
2022/02/18 13:02:41;;;;;;;6.00;1.47;;;10.90;99.90;;;;;;5065751;28;20328;-87
2022/02/18 13:05:10;;;;;;;5.93;0.93;;;10.90;99.90;;;;;;5064981;28;20217;-86
2022/02/18 13:07:58;;;;;;;2.30;1.37;;;10.80;99.90;;;;;;5071641;28;20492;-88